Chester, UT

7:31 PM MDT on August 27, 2014 (GMT -0600)
Heber | Change Station
CLOSE
Current Station
Airport
Location: Heber,
Elevation: 5636 ft
Nearby Weather Stations

Elev 5636 ft 40.48 °N, 111.43 °W | Updated 16 minutes ago

Overcast
Overcast
59 °F
Feels Like 59 °F
N
0
Wind Variable Wind from North

Today
High -- | Low -- °F
--% Chance of Precip.
Yesterday
High -- | Low -- °F
Precip. -- in
6:50 AM 8:04 PM
Waxing Crescent, 6% visible
Pressure 30.30 in
Visibility 10.0 miles
Clouds Scattered Clouds 7000 ft
Overcast 9000 ft
Dew Point 50 °F
Humidity 72%
Rainfall 0.00 in
Snow Depth Not available.
UV 0 out of 12
Pollen 7.70 out of 12
Air Quality Not available.
Flu Activity Not available.
METAR K36U 280115Z AUTO 00000KT 10SM SCT070 OVC090 15/10 A3030 RMK AO2

More Conditions Fewer Conditions

Pressure 30.30 in
Visibility 10.0 miles
Clouds Scattered Clouds 7000 ft
Overcast 9000 ft
Dew Point 50 °F
Humidity 72%
Rainfall 0.00 in
Snow Depth Not available.
UV 0 out of 12
Pollen 7.70 out of 12
Air Quality Not available.
Flu Activity Not available.
METAR K36U 280115Z AUTO 00000KT 10SM SCT070 OVC090 15/10 A3030 RMK AO2

More Conditions Fewer Conditions

Nowcast | as of 5:55 PM MDT on August 27, 2014

Scattered showers and isolated thunderstorms will continue to develop over portions of southern and central Utah this evening. The strongest storms at 550 PM were located just west Bullfrog Marina. Brief heavy rain...gusty winds...and cloud to ground lightning are possible with some of these storms.

×

10-Day Weather Forecast

Almanac

Astronomy

Aug. 27, 2014 Rise Set
Actual Time 6:50 AM MDT 8:04 PM MDT
Civil Twilight 6:22 AM MDT 8:32 PM MDT
Nautical Twilight 5:48 AM MDT 9:05 PM MDT
Astronomical Twilight 5:13 AM MDT 9:40 PM MDT
Moon 8:48 AM MDT (8/27) 8:59 PM MDT (8/27)
Length of Visible Light 14h 10m
Length of Day
13h 14m
Tomorrow will be 2m 26s shorter.
Waxing Crescent, 6% of the Moon is Illuminated
Today
Waxing Crescent
Sep 2
First Quarter
Sep 8
Full
Sep 15
Last Quarter
Sep 24
New

Today's Extremes

State Highs State Lows

Community

WunderPhotos

Upload Photos

1,747,848 photos uploaded!

Nearby

Snow Depth

Station Depth Elevation
Clear Creek #2 0 in 8300 ft
White River #1 0 in 8550 ft
Strawberry Divide 1 in 8400 ft
Cascade Mountain 0 in 7768 ft
Daniels-Strawberry 0 in 8000 ft

Earthquake Activity

City Distance Mag. Time & Date
No recent earthquake activity has been reported nearby.
Minimum magnitude displayed is 2.5.

Coastal Water Temperatures

Place Temperature
No Stations Reporting

Nearby Weather Stations